createdAt,value
2018-03-02T00:01:05.251Z,12.87
2018-03-02T00:03:33.455Z,12.97
2018-03-02T00:06:01.663Z,12.17
2018-03-02T00:08:29.961Z,12.73
2018-03-02T00:10:58.589Z,15.70
2018-03-02T00:13:26.853Z,15.70
2018-03-02T00:15:55.117Z,16.07
2018-03-02T00:18:23.361Z,12.83
2018-03-02T00:20:51.692Z,13.90
2018-03-02T00:23:19.957Z,13.77
2018-03-02T00:25:48.217Z,13.17
2018-03-02T00:28:16.455Z,13.27
2018-03-02T00:30:45.495Z,14.43
2018-03-02T00:33:14.622Z,11.23
2018-03-02T00:35:42.892Z,13.03
2018-03-02T00:38:11.111Z,15.37
2018-03-02T00:40:40.110Z,12.07
2018-03-02T00:43:08.356Z,15.30
2018-03-02T00:45:37.346Z,12.93
2018-03-02T00:48:07.217Z,14.53
2018-03-02T00:50:35.813Z,15.90
2018-03-02T00:53:04.054Z,14.03
2018-03-02T00:55:33.018Z,13.73
2018-03-02T00:58:02.778Z,12.97
2018-03-02T01:00:31.891Z,14.23
2018-03-02T01:03:00.265Z,12.80
2018-03-02T01:05:30.820Z,15.83
2018-03-02T01:08:00.300Z,12.73
2018-03-02T01:10:28.540Z,14.90
2018-03-02T01:12:57.025Z,14.17
2018-03-02T01:15:25.336Z,12.90
2018-03-02T01:17:53.715Z,13.63
2018-03-02T01:20:22.084Z,16.70
2018-03-02T01:22:50.470Z,16.80
2018-03-02T01:25:18.764Z,14.50
2018-03-02T01:27:47.034Z,17.23
2018-03-02T01:30:15.324Z,15.07
2018-03-02T01:32:44.538Z,16.80
2018-03-02T01:35:13.591Z,12.67
2018-03-02T01:37:41.890Z,16.83
2018-03-02T01:40:10.265Z,14.53
2018-03-02T01:42:38.579Z,15.27
2018-03-02T01:45:06.958Z,13.97
2018-03-02T01:47:35.315Z,12.47
2018-03-02T01:50:03.844Z,15.67
2018-03-02T01:52:32.175Z,14.57
2018-03-02T01:55:02.151Z,13.10
2018-03-02T01:57:32.501Z,13.93
2018-03-02T02:00:00.881Z,13.37
2018-03-02T02:02:29.256Z,13.17
2018-03-02T02:04:57.565Z,14.57
2018-03-02T02:07:25.849Z,16.00
2018-03-02T02:09:54.151Z,16.13
2018-03-02T02:12:22.514Z,14.77
2018-03-02T02:14:51.971Z,16.90
2018-03-02T02:17:21.087Z,14.00
2018-03-02T02:19:49.297Z,17.37
2018-03-02T02:22:18.357Z,13.20
2018-03-02T02:24:46.653Z,15.77
2018-03-02T02:27:15.665Z,14.60
2018-03-02T02:29:44.872Z,14.17
2018-03-02T02:32:13.215Z,18.17
2018-03-02T02:34:42.382Z,14.13
2018-03-02T02:37:10.667Z,15.30
2018-03-02T02:39:38.901Z,14.07
2018-03-02T02:42:08.009Z,15.97
2018-03-02T02:44:36.228Z,14.30
2018-03-02T02:47:04.480Z,15.50
2018-03-02T02:49:32.895Z,12.33
2018-03-02T02:52:01.143Z,15.03
2018-03-02T02:54:29.520Z,13.67
2018-03-02T02:56:58.112Z,15.73
2018-03-02T02:59:26.391Z,13.53
2018-03-02T03:01:54.783Z,13.17
2018-03-02T03:04:23.964Z,16.20
2018-03-02T03:06:52.236Z,15.50
2018-03-02T03:09:20.727Z,12.73
2018-03-02T03:11:49.016Z,14.80
2018-03-02T03:14:17.860Z,16.23
2018-03-02T03:16:46.130Z,14.23
2018-03-02T03:19:14.387Z,12.97
2018-03-02T03:21:42.865Z,15.17
2018-03-02T03:24:11.623Z,16.03
2018-03-02T03:26:39.855Z,18.87
2018-03-02T03:29:10.313Z,15.37
2018-03-02T03:31:40.348Z,14.43
2018-03-02T03:34:10.703Z,15.00
2018-03-02T03:36:39.729Z,16.13
2018-03-02T03:39:08.010Z,15.73
2018-03-02T03:41:36.303Z,14.80
2018-03-02T03:44:04.750Z,15.53
2018-03-02T03:46:33.751Z,13.13
2018-03-02T03:49:01.999Z,14.40
2018-03-02T03:51:30.253Z,17.80
2018-03-02T03:53:59.133Z,17.90
2018-03-02T03:56:27.401Z,14.80
2018-03-02T03:58:55.723Z,18.07
2018-03-02T04:01:24.784Z,16.70
2018-03-02T04:03:53.153Z,14.30
2018-03-02T04:06:21.538Z,17.03
2018-03-02T04:08:49.794Z,13.47
2018-03-02T04:11:18.192Z,16.40
2018-03-02T04:13:46.410Z,15.00
2018-03-02T04:16:14.847Z,17.87
2018-03-02T04:18:43.087Z,15.53
2018-03-02T04:21:12.152Z,17.20
2018-03-02T04:23:41.187Z,17.40
2018-03-02T04:26:09.440Z,16.77
2018-03-02T04:28:37.704Z,14.70
2018-03-02T04:31:06.685Z,19.70
2018-03-02T04:33:36.075Z,21.87
2018-03-02T04:36:04.457Z,17.77
2018-03-02T04:38:32.841Z,16.97
2018-03-02T04:41:02.621Z,14.63
2018-03-02T04:43:30.846Z,16.03
2018-03-02T04:45:59.064Z,16.40
2018-03-02T04:48:27.372Z,21.17
2018-03-02T04:50:55.946Z,16.33
2018-03-02T04:53:24.236Z,17.53
2018-03-02T04:55:52.513Z,17.73
2018-03-02T04:58:20.860Z,17.33
2018-03-02T05:00:49.104Z,16.17
2018-03-02T05:03:18.164Z,14.77
2018-03-02T05:05:46.716Z,17.07
2018-03-02T05:08:15.090Z,20.17
2018-03-02T05:10:43.409Z,17.17
2018-03-02T05:13:13.516Z,18.97
2018-03-02T05:15:41.760Z,14.73
2018-03-02T05:18:09.980Z,20.17
2018-03-02T05:20:39.771Z,17.97
2018-03-02T05:23:08.001Z,15.70
2018-03-02T05:25:37.028Z,14.90
2018-03-02T05:28:05.246Z,20.63
2018-03-02T05:30:33.468Z,17.10
2018-03-02T05:33:01.719Z,20.17
2018-03-02T05:35:30.726Z,16.87
2018-03-02T05:38:00.082Z,18.70
2018-03-02T05:40:28.306Z,17.67
2018-03-02T05:42:57.277Z,16.13
2018-03-02T05:45:27.062Z,19.67
2018-03-02T05:47:55.387Z,18.47
2018-03-02T05:50:24.375Z,15.87
2018-03-02T05:52:53.358Z,18.47
2018-03-02T05:55:21.694Z,20.40
2018-03-02T05:57:49.957Z,17.53
2018-03-02T06:00:18.179Z,18.77
2018-03-02T06:02:46.548Z,17.13
2018-03-02T06:05:14.911Z,16.03
2018-03-02T06:07:43.369Z,17.60
2018-03-02T06:10:11.603Z,17.23
2018-03-02T06:12:39.886Z,18.27
2018-03-02T06:15:09.964Z,19.13
2018-03-02T06:17:38.406Z,17.10
2018-03-02T06:20:06.732Z,19.27
2018-03-02T06:22:36.537Z,17.47
2018-03-02T06:25:04.799Z,15.17
2018-03-02T06:27:33.219Z,17.90
2018-03-02T06:30:02.469Z,17.37
2018-03-02T06:32:30.727Z,19.87
2018-03-02T06:34:59.761Z,18.23
2018-03-02T06:37:28.069Z,22.30
2018-03-02T06:39:56.313Z,21.23
2018-03-02T06:42:24.700Z,19.53
2018-03-02T06:44:53.127Z,22.10
2018-03-02T06:47:21.555Z,21.90
2018-03-02T06:49:49.952Z,17.23
2018-03-02T06:52:18.317Z,18.10
2018-03-02T06:54:46.657Z,18.60
2018-03-02T06:57:15.025Z,18.20
2018-03-02T06:59:43.355Z,20.07
2018-03-02T07:02:11.828Z,20.63
2018-03-02T07:04:40.115Z,19.70
2018-03-02T07:07:08.339Z,20.03
2018-03-02T07:09:36.778Z,19.03
2018-03-02T07:12:05.049Z,19.37
2018-03-02T07:14:33.296Z,19.97
2018-03-02T07:17:01.566Z,18.70
2018-03-02T07:19:30.051Z,18.23
2018-03-02T07:21:58.479Z,18.47
2018-03-02T07:24:27.759Z,21.00
2018-03-02T07:26:57.020Z,17.60
2018-03-02T07:29:27.017Z,19.17
2018-03-02T07:31:56.104Z,20.27
2018-03-02T07:34:25.820Z,20.70
2018-03-02T07:36:54.061Z,19.43
2018-03-02T07:39:22.475Z,19.37
2018-03-02T07:44:30.153Z,22.03
2018-03-02T07:46:58.733Z,18.93
2018-03-02T07:49:27.220Z,18.83
2018-03-02T07:51:56.415Z,20.13
2018-03-02T07:54:24.755Z,20.80
2018-03-02T07:56:53.021Z,20.07
2018-03-02T07:59:22.217Z,19.27
2018-03-02T08:01:50.973Z,20.37
2018-03-02T08:04:19.355Z,20.97
2018-03-02T08:06:47.813Z,19.87
2018-03-02T08:09:16.303Z,18.40
2018-03-02T08:11:44.781Z,20.03
2018-03-02T08:14:13.029Z,20.00
2018-03-02T08:16:41.337Z,20.90
2018-03-02T08:19:09.745Z,21.87
2018-03-02T08:21:38.739Z,21.70
2018-03-02T08:24:07.067Z,20.17
2018-03-02T08:26:35.931Z,23.80
2018-03-02T08:29:06.088Z,21.03
2018-03-02T08:31:34.424Z,24.33
2018-03-02T08:34:03.467Z,33.20
2018-03-02T08:36:31.752Z,27.33
2018-03-02T08:39:00.252Z,20.80
2018-03-02T08:41:28.920Z,24.77
2018-03-02T08:43:57.292Z,16.67
2018-03-02T08:46:25.573Z,17.80
2018-03-02T08:48:54.274Z,21.07
2018-03-02T08:51:23.863Z,23.27
2018-03-02T08:53:52.154Z,18.57
2018-03-02T08:56:20.529Z,22.30
2018-03-02T08:58:49.093Z,23.20
2018-03-02T09:01:17.392Z,18.93
2018-03-02T09:03:45.904Z,20.97
2018-03-02T09:06:15.052Z,21.37
2018-03-02T09:08:43.652Z,20.37
2018-03-02T09:11:12.017Z,19.67
2018-03-02T09:13:40.340Z,20.23
2018-03-02T09:16:08.607Z,22.60
2018-03-02T09:18:36.893Z,21.53
2018-03-02T09:21:05.954Z,20.67
2018-03-02T09:23:34.433Z,23.50
2018-03-02T09:26:02.720Z,22.80
2018-03-02T09:28:31.124Z,21.93
2018-03-02T09:30:59.476Z,21.77
2018-03-02T09:33:28.103Z,23.10
2018-03-02T09:35:57.463Z,24.83
2018-03-02T09:38:26.610Z,21.93
2018-03-02T09:40:55.788Z,21.07
2018-03-02T09:43:25.012Z,22.77
2018-03-02T09:45:53.541Z,22.30
2018-03-02T09:48:22.566Z,25.00
2018-03-02T09:50:51.621Z,24.97
2018-03-02T09:53:19.907Z,23.37
2018-03-02T09:55:48.176Z,22.47
2018-03-02T09:58:16.471Z,24.60
2018-03-02T10:00:46.726Z,22.13
2018-03-02T10:03:15.781Z,23.53
2018-03-02T10:05:46.128Z,23.50
2018-03-02T10:08:15.147Z,21.60
2018-03-02T10:10:44.196Z,22.37
2018-03-02T10:13:12.679Z,23.13
2018-03-02T10:15:41.093Z,22.73
2018-03-02T10:18:09.321Z,23.43
2018-03-02T10:20:37.633Z,21.67
2018-03-02T10:23:06.161Z,22.43
2018-03-02T10:25:34.573Z,22.23
2018-03-02T10:28:02.847Z,26.40
2018-03-02T10:30:31.189Z,24.97
2018-03-02T10:33:03.086Z,26.43
2018-03-02T10:35:31.330Z,23.50
2018-03-02T10:38:00.704Z,25.23
2018-03-02T10:40:29.736Z,23.17
2018-03-02T10:42:58.019Z,23.97
2018-03-02T10:45:27.658Z,22.50
2018-03-02T10:47:56.046Z,21.67
2018-03-02T10:50:25.688Z,24.93
2018-03-02T10:52:55.863Z,24.33
2018-03-02T10:55:24.171Z,25.07
2018-03-02T10:57:53.394Z,27.90
2018-03-02T11:00:27.425Z,29.30
2018-03-02T11:02:57.580Z,28.97
2018-03-02T11:05:31.680Z,24.73
2018-03-02T11:08:00.102Z,28.90
2018-03-02T11:10:28.747Z,25.83
2018-03-02T11:12:57.714Z,25.17
2018-03-02T11:15:27.371Z,25.47
2018-03-02T11:17:55.776Z,23.33
2018-03-02T11:20:25.260Z,26.57
2018-03-02T11:22:54.345Z,25.83
2018-03-02T11:25:22.775Z,27.67
2018-03-02T11:27:51.175Z,27.90
2018-03-02T11:30:19.716Z,27.03
2018-03-02T11:32:48.756Z,25.00
2018-03-02T11:35:17.079Z,28.53
2018-03-02T11:37:45.429Z,31.37
2018-03-02T11:40:15.037Z,25.93
2018-03-02T11:42:43.410Z,25.67
2018-03-02T11:45:11.637Z,26.37
2018-03-02T11:47:40.790Z,32.53
2018-03-02T11:50:09.019Z,29.27
2018-03-02T11:52:38.084Z,34.50
2018-03-02T11:55:06.491Z,33.00
2018-03-02T11:57:35.837Z,28.73
2018-03-02T12:00:04.564Z,27.03
2018-03-02T12:02:33.609Z,29.10
2018-03-02T12:05:01.865Z,27.33
2018-03-02T12:07:31.424Z,27.67
2018-03-02T12:09:59.811Z,28.70
2018-03-02T12:12:28.091Z,31.23
2018-03-02T12:14:57.250Z,30.47
2018-03-02T12:17:26.630Z,31.37
2018-03-02T12:19:54.873Z,30.77
2018-03-02T12:22:23.871Z,33.60
2018-03-02T12:24:52.133Z,28.80
2018-03-02T12:27:20.603Z,30.23
2018-03-02T12:29:48.862Z,27.47
2018-03-02T12:32:17.398Z,28.33
2018-03-02T12:34:46.518Z,32.63
2018-03-02T12:37:15.767Z,30.17
2018-03-02T12:39:44.051Z,30.03
2018-03-02T12:42:13.086Z,32.73
2018-03-02T12:44:41.519Z,28.57
2018-03-02T12:47:09.908Z,29.40
2018-03-02T12:49:40.314Z,30.97
2018-03-02T12:52:08.594Z,31.37
2018-03-02T12:54:37.001Z,26.23
2018-03-02T12:57:05.341Z,29.03
2018-03-02T12:59:33.650Z,29.13
2018-03-02T13:02:02.070Z,28.27
2018-03-02T13:04:31.003Z,33.63
2018-03-02T13:06:59.367Z,31.80
2018-03-02T13:09:27.656Z,28.67
2018-03-02T13:11:56.025Z,28.90
2018-03-02T13:14:24.319Z,31.73
2018-03-02T13:16:53.398Z,28.57
2018-03-02T13:19:21.636Z,30.37
2018-03-02T13:21:50.056Z,31.23
2018-03-02T13:24:18.327Z,32.40
2018-03-02T13:26:58.589Z,34.43
2018-03-02T13:29:26.895Z,32.10
2018-03-02T13:31:55.226Z,32.13
2018-03-02T13:34:35.489Z,31.30
2018-03-02T13:37:03.899Z,35.27
2018-03-02T13:39:44.423Z,32.90
2018-03-02T13:42:12.641Z,40.70
2018-03-02T13:44:42.863Z,32.37
2018-03-02T13:47:11.155Z,33.50
2018-03-02T13:49:51.280Z,33.03
2018-03-02T13:52:20.487Z,32.90
2018-03-02T13:54:49.581Z,34.43
2018-03-02T13:57:29.805Z,31.60
2018-03-02T13:59:58.240Z,31.50
2018-03-02T14:02:39.287Z,36.53
2018-03-02T14:05:07.591Z,32.77
2018-03-02T14:07:35.854Z,35.97
2018-03-02T14:10:05.045Z,34.30
2018-03-02T14:12:33.310Z,34.03
2018-03-02T14:15:01.609Z,34.40
2018-03-02T14:17:29.901Z,36.00
2018-03-02T14:19:58.130Z,32.60
2018-03-02T14:22:26.397Z,36.13
2018-03-02T14:24:54.692Z,35.53
2018-03-02T14:27:22.941Z,38.23
2018-03-02T14:29:52.000Z,34.00
2018-03-02T14:32:21.164Z,35.77
2018-03-02T14:34:49.562Z,32.60
2018-03-02T14:37:17.968Z,34.77
2018-03-02T14:39:46.322Z,38.37
2018-03-02T14:42:14.552Z,33.80
2018-03-02T14:44:43.687Z,34.63
2018-03-02T14:47:12.378Z,38.67
2018-03-02T14:49:40.758Z,32.70
2018-03-02T14:52:09.056Z,36.03
2018-03-02T14:54:37.341Z,34.20
2018-03-02T14:57:06.358Z,37.40
2018-03-02T14:59:35.700Z,32.80
2018-03-02T15:02:04.914Z,36.40
2018-03-02T15:04:34.143Z,42.83
2018-03-02T15:07:02.414Z,51.07
2018-03-02T15:09:33.378Z,103.27
2018-03-02T15:12:01.716Z,46.87
2018-03-02T15:14:30.863Z,37.50
2018-03-02T15:17:01.267Z,34.17
2018-03-02T15:19:29.607Z,33.50
2018-03-02T15:21:58.701Z,34.67
2018-03-02T15:24:26.996Z,34.37
2018-03-02T15:26:55.217Z,36.90
2018-03-02T15:29:23.529Z,34.30
2018-03-02T15:31:51.890Z,33.13
2018-03-02T15:34:21.210Z,38.60
2018-03-02T15:36:51.156Z,35.00
2018-03-02T15:39:20.332Z,33.73
2018-03-02T15:41:48.580Z,36.03
2018-03-02T15:44:16.832Z,36.00
2018-03-02T15:46:45.350Z,34.60
2018-03-02T15:49:14.412Z,36.20
2018-03-02T15:51:42.833Z,39.17
2018-03-02T15:54:11.154Z,35.73
2018-03-02T15:56:40.241Z,36.03
2018-03-02T15:59:10.432Z,37.40
2018-03-02T16:01:38.805Z,38.80
2018-03-02T16:04:07.053Z,40.27
2018-03-02T16:06:35.320Z,41.53
2018-03-02T16:09:03.857Z,41.53
2018-03-02T16:11:32.263Z,46.33
2018-03-02T16:14:00.633Z,46.83
2018-03-02T16:16:30.402Z,40.23
2018-03-02T16:18:58.816Z,43.10
2018-03-02T16:21:27.227Z,46.00
2018-03-02T16:23:55.591Z,43.40
2018-03-02T16:26:25.475Z,43.00
2018-03-02T16:28:53.885Z,48.33
2018-03-02T16:31:22.920Z,46.07
2018-03-02T16:33:51.326Z,48.23
2018-03-02T16:36:19.798Z,45.00
2018-03-02T16:38:48.103Z,54.70
2018-03-02T16:41:16.416Z,41.53
2018-03-02T16:43:45.492Z,41.20
2018-03-02T16:46:13.745Z,41.73
2018-03-02T16:48:42.311Z,43.97
2018-03-02T16:51:10.594Z,39.63
2018-03-02T16:53:39.017Z,40.43
2018-03-02T16:56:08.031Z,41.23
2018-03-02T16:58:36.314Z,41.53
2018-03-02T17:01:04.702Z,40.57
2018-03-02T17:03:32.906Z,40.53
2018-03-02T17:06:01.178Z,42.97
2018-03-02T17:08:29.444Z,40.43
2018-03-02T17:10:57.708Z,44.60
2018-03-02T17:13:26.026Z,39.13
2018-03-02T17:15:55.054Z,48.87
2018-03-02T17:18:24.207Z,40.67
2018-03-02T17:20:52.466Z,45.73
2018-03-02T17:23:22.342Z,51.83
2018-03-02T17:25:51.354Z,44.83
2018-03-02T17:28:19.635Z,42.97
2018-03-02T17:30:47.946Z,44.60
2018-03-02T17:33:16.590Z,51.57
2018-03-02T17:35:46.223Z,51.80
2018-03-02T17:38:15.444Z,59.17
2018-03-02T17:40:43.699Z,60.70
2018-03-02T17:43:12.855Z,51.37
2018-03-02T17:45:41.874Z,48.33
2018-03-02T17:48:10.917Z,46.73
2018-03-02T17:50:39.268Z,48.13
2018-03-02T17:53:07.557Z,45.43
2018-03-02T17:55:35.805Z,45.97
2018-03-02T17:58:04.182Z,50.13
2018-03-02T18:00:32.485Z,46.30
2018-03-02T18:03:01.482Z,46.77
2018-03-02T18:05:29.751Z,47.10
2018-03-02T18:07:58.128Z,48.20
2018-03-02T18:10:26.493Z,50.03
2018-03-02T18:12:54.912Z,48.17
2018-03-02T18:15:23.969Z,49.47
2018-03-02T18:17:52.224Z,49.23
2018-03-02T18:20:21.233Z,47.77
2018-03-02T18:22:49.528Z,49.33
2018-03-02T18:25:17.859Z,49.37
2018-03-02T18:27:46.354Z,50.97
2018-03-02T18:30:14.875Z,51.17
2018-03-02T18:32:43.357Z,50.27
2018-03-02T18:35:11.636Z,46.90
2018-03-02T18:37:40.933Z,50.13
2018-03-02T18:40:09.555Z,49.37
2018-03-02T18:42:37.893Z,45.47
2018-03-02T18:45:06.285Z,51.37
2018-03-02T18:47:34.600Z,50.53
2018-03-02T18:50:02.907Z,47.87
2018-03-02T18:52:32.106Z,46.50
2018-03-02T18:55:00.525Z,44.90
2018-03-02T18:57:28.874Z,51.83
2018-03-02T18:59:57.795Z,48.93
2018-03-02T19:02:26.092Z,45.60
2018-03-02T19:04:54.445Z,49.13
2018-03-02T19:07:22.651Z,49.63
2018-03-02T19:09:51.034Z,45.40
2018-03-02T19:12:19.374Z,49.17
2018-03-02T19:14:47.808Z,48.00
2018-03-02T19:17:16.842Z,53.93
2018-03-02T19:19:45.294Z,44.27
2018-03-02T19:22:13.814Z,48.57
2018-03-02T19:24:42.674Z,51.07
2018-03-02T19:27:11.656Z,54.73
2018-03-02T19:29:40.718Z,50.67
2018-03-02T19:32:09.076Z,53.37
2018-03-02T19:34:37.336Z,47.47
2018-03-02T19:37:05.620Z,51.13
2018-03-02T19:39:34.036Z,49.37
2018-03-02T19:42:03.275Z,52.30
2018-03-02T19:44:32.450Z,52.87
2018-03-02T19:47:01.804Z,55.90
2018-03-02T19:49:30.081Z,54.80
2018-03-02T19:51:58.324Z,52.83
2018-03-02T19:54:26.654Z,53.60
2018-03-02T19:56:55.737Z,51.30
2018-03-02T19:59:24.125Z,54.67
2018-03-02T20:01:52.372Z,55.63
2018-03-02T20:04:20.639Z,54.00
2018-03-02T20:06:48.957Z,53.47
2018-03-02T20:09:17.362Z,55.93
2018-03-02T20:11:45.809Z,53.43
2018-03-02T20:14:14.288Z,56.87
2018-03-02T20:16:42.531Z,52.27
2018-03-02T20:19:10.788Z,55.77
2018-03-02T20:21:39.102Z,55.43
2018-03-02T20:24:07.497Z,55.70
2018-03-02T20:26:35.797Z,61.70
2018-03-02T20:29:04.023Z,58.90
2018-03-02T20:31:32.917Z,60.07
2018-03-02T20:34:01.213Z,58.57
2018-03-02T20:36:30.517Z,56.67
2018-03-02T20:38:58.794Z,52.90
2018-03-02T20:41:27.036Z,55.27
2018-03-02T20:43:55.466Z,57.17
2018-03-02T20:46:24.696Z,56.90
2018-03-02T20:48:53.141Z,55.77
2018-03-02T20:51:21.447Z,57.53
2018-03-02T20:53:50.024Z,54.57
2018-03-02T20:56:19.207Z,55.20
2018-03-02T20:58:47.530Z,61.97
2018-03-02T21:01:15.774Z,55.03
2018-03-02T21:03:44.176Z,58.47
2018-03-02T21:06:13.230Z,58.37
2018-03-02T21:08:41.598Z,56.43
2018-03-02T21:11:09.997Z,61.30
2018-03-02T21:13:38.285Z,64.53
2018-03-02T21:16:06.644Z,65.90
2018-03-02T21:18:34.922Z,70.47
2018-03-02T21:21:03.198Z,68.20
2018-03-02T21:23:31.580Z,66.23
2018-03-02T21:25:59.804Z,59.70
2018-03-02T21:28:28.953Z,66.17
2018-03-02T21:30:58.184Z,70.60
2018-03-02T21:33:32.441Z,70.70
2018-03-02T21:35:55.730Z,73.53
2018-03-02T21:38:24.860Z,78.17
2018-03-02T21:40:53.196Z,71.20
2018-03-02T21:43:21.575Z,69.43
2018-03-02T21:45:49.981Z,73.03
2018-03-02T21:48:18.437Z,70.50
2018-03-02T21:50:46.679Z,75.53
2018-03-02T21:53:14.931Z,70.87
2018-03-02T21:55:44.731Z,67.23
2018-03-02T21:58:14.519Z,68.63
2018-03-02T22:00:42.789Z,69.93
2018-03-02T22:03:11.170Z,62.47
2018-03-02T22:05:39.630Z,68.73
2018-03-02T22:08:07.900Z,70.70
2018-03-02T22:10:36.312Z,76.63
2018-03-02T22:13:04.689Z,70.77
2018-03-02T22:15:33.784Z,72.10
2018-03-02T22:18:02.120Z,70.57
2018-03-02T22:20:30.673Z,70.60
2018-03-02T22:22:58.959Z,70.93
2018-03-02T22:25:28.728Z,73.83
2018-03-02T22:27:57.053Z,76.23
2018-03-02T22:30:25.423Z,75.37
2018-03-02T22:32:53.857Z,82.33
2018-03-02T22:35:22.273Z,79.67
2018-03-02T22:37:50.655Z,77.90
2018-03-02T22:40:19.025Z,79.43
2018-03-02T22:42:47.425Z,78.93
2018-03-02T22:45:15.769Z,84.33
2018-03-02T22:47:44.222Z,83.67
2018-03-02T22:50:13.276Z,81.17
2018-03-02T22:52:41.621Z,86.90
2018-03-02T22:55:10.812Z,84.57
2018-03-02T22:57:39.110Z,80.73
2018-03-02T23:00:07.556Z,85.07
2018-03-02T23:02:35.880Z,86.30
2018-03-02T23:05:06.652Z,85.27
2018-03-02T23:07:35.674Z,90.17
2018-03-02T23:10:03.910Z,80.63
2018-03-02T23:12:32.576Z,81.93
2018-03-02T23:15:01.770Z,85.47
2018-03-02T23:17:30.702Z,84.43
2018-03-02T23:19:59.696Z,80.93
2018-03-02T23:22:29.050Z,88.80
2018-03-02T23:24:57.414Z,75.07
2018-03-02T23:27:25.700Z,81.83
2018-03-02T23:29:53.953Z,83.27
2018-03-02T23:32:22.369Z,82.83
2018-03-02T23:34:50.711Z,89.10
2018-03-02T23:37:19.117Z,97.13
2018-03-02T23:39:47.490Z,96.73
2018-03-02T23:42:15.759Z,85.27
2018-03-02T23:44:43.987Z,83.03
2018-03-02T23:47:13.023Z,76.93
2018-03-02T23:49:41.299Z,84.37
2018-03-02T23:52:09.568Z,69.50
2018-03-02T23:54:37.809Z,75.43
2018-03-02T23:57:06.860Z,77.60
2018-03-02T23:59:35.118Z,73.77
